sensor_id;sensor_type;location;lat;lon;timestamp;P1;durP1;ratioP1;P2;durP2;ratioP2
16577;SDS011;8401;52.528;13.340;2022-10-16T00:01:34;2.30;;;1.83;;
16577;SDS011;8401;52.528;13.340;2022-10-16T00:04:00;4.20;;;2.20;;
16577;SDS011;8401;52.528;13.340;2022-10-16T00:06:27;5.27;;;3.60;;
16577;SDS011;8401;52.528;13.340;2022-10-16T00:08:53;2.93;;;2.40;;
16577;SDS011;8401;52.528;13.340;2022-10-16T00:11:27;3.67;;;2.77;;
16577;SDS011;8401;52.528;13.340;2022-10-16T00:13:55;4.23;;;3.10;;
16577;SDS011;8401;52.528;13.340;2022-10-16T00:16:23;2.07;;;1.80;;
16577;SDS011;8401;52.528;13.340;2022-10-16T00:18:48;2.00;;;1.90;;
16577;SDS011;8401;52.528;13.340;2022-10-16T00:21:15;2.77;;;1.80;;
16577;SDS011;8401;52.528;13.340;2022-10-16T00:23:42;2.10;;;1.90;;
16577;SDS011;8401;52.528;13.340;2022-10-16T00:26:10;3.13;;;1.80;;
16577;SDS011;8401;52.528;13.340;2022-10-16T00:28:37;2.43;;;2.23;;
16577;SDS011;8401;52.528;13.340;2022-10-16T00:31:09;2.03;;;1.83;;
16577;SDS011;8401;52.528;13.340;2022-10-16T00:33:37;2.07;;;1.70;;
16577;SDS011;8401;52.528;13.340;2022-10-16T00:36:04;2.30;;;2.10;;
16577;SDS011;8401;52.528;13.340;2022-10-16T00:38:30;2.53;;;1.97;;
16577;SDS011;8401;52.528;13.340;2022-10-16T00:40:56;2.70;;;2.20;;
16577;SDS011;8401;52.528;13.340;2022-10-16T00:43:36;2.50;;;2.13;;
16577;SDS011;8401;52.528;13.340;2022-10-16T00:46:03;6.57;;;2.10;;
16577;SDS011;8401;52.528;13.340;2022-10-16T00:48:33;3.30;;;1.90;;
16577;SDS011;8401;52.528;13.340;2022-10-16T00:50:59;1.60;;;1.50;;
16577;SDS011;8401;52.528;13.340;2022-10-16T00:53:25;4.73;;;2.03;;
16577;SDS011;8401;52.528;13.340;2022-10-16T00:55:52;2.63;;;1.80;;
16577;SDS011;8401;52.528;13.340;2022-10-16T00:58:17;2.43;;;1.77;;
16577;SDS011;8401;52.528;13.340;2022-10-16T01:00:43;3.43;;;1.90;;
16577;SDS011;8401;52.528;13.340;2022-10-16T01:03:22;1.83;;;1.63;;
16577;SDS011;8401;52.528;13.340;2022-10-16T01:06:03;4.37;;;2.27;;
16577;SDS011;8401;52.528;13.340;2022-10-16T01:08:44;3.73;;;1.80;;
16577;SDS011;8401;52.528;13.340;2022-10-16T01:11:22;1.90;;;1.60;;
16577;SDS011;8401;52.528;13.340;2022-10-16T01:13:58;2.90;;;2.10;;
16577;SDS011;8401;52.528;13.340;2022-10-16T01:16:34;2.10;;;1.77;;
16577;SDS011;8401;52.528;13.340;2022-10-16T01:19:36;2.50;;;1.83;;
16577;SDS011;8401;52.528;13.340;2022-10-16T01:22:14;2.57;;;1.80;;
16577;SDS011;8401;52.528;13.340;2022-10-16T01:24:43;2.40;;;1.80;;
16577;SDS011;8401;52.528;13.340;2022-10-16T01:27:25;1.50;;;1.40;;
16577;SDS011;8401;52.528;13.340;2022-10-16T01:30:05;1.67;;;1.53;;
16577;SDS011;8401;52.528;13.340;2022-10-16T01:32:37;2.10;;;1.63;;
16577;SDS011;8401;52.528;13.340;2022-10-16T01:35:10;1.97;;;1.50;;
16577;SDS011;8401;52.528;13.340;2022-10-16T01:37:50;3.87;;;2.10;;
16577;SDS011;8401;52.528;13.340;2022-10-16T01:40:26;2.97;;;1.60;;
16577;SDS011;8401;52.528;13.340;2022-10-16T01:42:58;2.27;;;1.80;;
16577;SDS011;8401;52.528;13.340;2022-10-16T01:45:32;1.90;;;1.50;;
16577;SDS011;8401;52.528;13.340;2022-10-16T01:48:00;3.80;;;1.90;;
16577;SDS011;8401;52.528;13.340;2022-10-16T01:50:29;1.57;;;1.47;;
16577;SDS011;8401;52.528;13.340;2022-10-16T01:52:59;2.20;;;1.50;;
16577;SDS011;8401;52.528;13.340;2022-10-16T01:55:36;1.70;;;1.57;;
16577;SDS011;8401;52.528;13.340;2022-10-16T01:58:04;1.73;;;1.63;;
16577;SDS011;8401;52.528;13.340;2022-10-16T02:00:32;1.60;;;1.50;;
16577;SDS011;8401;52.528;13.340;2022-10-16T02:03:01;2.60;;;1.60;;
16577;SDS011;8401;52.528;13.340;2022-10-16T02:05:30;3.03;;;1.73;;
16577;SDS011;8401;52.528;13.340;2022-10-16T02:08:02;3.83;;;1.60;;
16577;SDS011;8401;52.528;13.340;2022-10-16T02:10:27;1.80;;;1.70;;
16577;SDS011;8401;52.528;13.340;2022-10-16T02:13:00;1.73;;;1.30;;
16577;SDS011;8401;52.528;13.340;2022-10-16T02:15:38;2.40;;;1.87;;
16577;SDS011;8401;52.528;13.340;2022-10-16T02:18:04;1.80;;;1.60;;
16577;SDS011;8401;52.528;13.340;2022-10-16T02:20:32;2.73;;;1.60;;
16577;SDS011;8401;52.528;13.340;2022-10-16T02:23:04;2.90;;;1.47;;
16577;SDS011;8401;52.528;13.340;2022-10-16T02:25:32;1.70;;;1.60;;
16577;SDS011;8401;52.528;13.340;2022-10-16T02:28:35;1.63;;;1.30;;
16577;SDS011;8401;52.528;13.340;2022-10-16T02:30:58;3.47;;;1.40;;
16577;SDS011;8401;52.528;13.340;2022-10-16T02:33:28;1.93;;;1.70;;
16577;SDS011;8401;52.528;13.340;2022-10-16T02:35:55;1.60;;;1.50;;
16577;SDS011;8401;52.528;13.340;2022-10-16T02:38:22;3.53;;;1.40;;
16577;SDS011;8401;52.528;13.340;2022-10-16T02:40:49;4.33;;;1.50;;
16577;SDS011;8401;52.528;13.340;2022-10-16T02:43:15;2.37;;;1.50;;
16577;SDS011;8401;52.528;13.340;2022-10-16T02:45:41;2.17;;;1.50;;
16577;SDS011;8401;52.528;13.340;2022-10-16T02:48:07;2.10;;;1.57;;
16577;SDS011;8401;52.528;13.340;2022-10-16T02:50:32;2.47;;;2.00;;
16577;SDS011;8401;52.528;13.340;2022-10-16T02:52:58;3.60;;;1.97;;
16577;SDS011;8401;52.528;13.340;2022-10-16T02:55:23;3.27;;;1.83;;
16577;SDS011;8401;52.528;13.340;2022-10-16T02:57:49;1.67;;;1.50;;
16577;SDS011;8401;52.528;13.340;2022-10-16T03:00:15;1.57;;;1.47;;
16577;SDS011;8401;52.528;13.340;2022-10-16T03:02:42;2.40;;;1.83;;
16577;SDS011;8401;52.528;13.340;2022-10-16T03:05:08;2.50;;;1.60;;
16577;SDS011;8401;52.528;13.340;2022-10-16T03:07:35;3.83;;;1.90;;
16577;SDS011;8401;52.528;13.340;2022-10-16T03:10:00;2.20;;;2.00;;
16577;SDS011;8401;52.528;13.340;2022-10-16T03:12:29;2.57;;;1.97;;
16577;SDS011;8401;52.528;13.340;2022-10-16T03:14:55;6.07;;;2.47;;
16577;SDS011;8401;52.528;13.340;2022-10-16T03:17:21;2.10;;;1.90;;
16577;SDS011;8401;52.528;13.340;2022-10-16T03:19:47;2.80;;;2.03;;
16577;SDS011;8401;52.528;13.340;2022-10-16T03:22:13;2.00;;;1.80;;
16577;SDS011;8401;52.528;13.340;2022-10-16T03:24:38;2.43;;;1.70;;
16577;SDS011;8401;52.528;13.340;2022-10-16T03:27:04;2.77;;;1.97;;
16577;SDS011;8401;52.528;13.340;2022-10-16T03:29:29;2.50;;;2.03;;
16577;SDS011;8401;52.528;13.340;2022-10-16T03:31:57;2.13;;;1.93;;
16577;SDS011;8401;52.528;13.340;2022-10-16T03:34:22;2.10;;;1.90;;
16577;SDS011;8401;52.528;13.340;2022-10-16T03:36:48;2.10;;;1.90;;
16577;SDS011;8401;52.528;13.340;2022-10-16T03:39:14;2.83;;;2.20;;
16577;SDS011;8401;52.528;13.340;2022-10-16T03:41:39;2.73;;;2.40;;
16577;SDS011;8401;52.528;13.340;2022-10-16T03:44:05;2.97;;;2.33;;
16577;SDS011;8401;52.528;13.340;2022-10-16T03:46:31;2.60;;;2.33;;
16577;SDS011;8401;52.528;13.340;2022-10-16T03:48:56;2.30;;;2.03;;
16577;SDS011;8401;52.528;13.340;2022-10-16T03:51:22;2.33;;;2.00;;
16577;SDS011;8401;52.528;13.340;2022-10-16T03:53:47;2.33;;;2.00;;
16577;SDS011;8401;52.528;13.340;2022-10-16T03:56:13;3.30;;;2.40;;
16577;SDS011;8401;52.528;13.340;2022-10-16T03:58:38;2.73;;;1.70;;
16577;SDS011;8401;52.528;13.340;2022-10-16T04:01:04;2.00;;;1.80;;
16577;SDS011;8401;52.528;13.340;2022-10-16T04:03:30;1.87;;;1.50;;
16577;SDS011;8401;52.528;13.340;2022-10-16T04:05:55;2.07;;;1.57;;
16577;SDS011;8401;52.528;13.340;2022-10-16T04:08:21;2.20;;;2.00;;
16577;SDS011;8401;52.528;13.340;2022-10-16T04:10:47;1.60;;;1.50;;
16577;SDS011;8401;52.528;13.340;2022-10-16T04:13:12;1.90;;;1.70;;
16577;SDS011;8401;52.528;13.340;2022-10-16T04:15:38;2.00;;;1.70;;
16577;SDS011;8401;52.528;13.340;2022-10-16T04:18:04;2.50;;;2.13;;
16577;SDS011;8401;52.528;13.340;2022-10-16T04:20:30;1.63;;;1.53;;
16577;SDS011;8401;52.528;13.340;2022-10-16T04:22:56;2.30;;;2.10;;
16577;SDS011;8401;52.528;13.340;2022-10-16T04:25:22;1.63;;;1.53;;
16577;SDS011;8401;52.528;13.340;2022-10-16T04:27:47;2.30;;;1.73;;
16577;SDS011;8401;52.528;13.340;2022-10-16T04:30:13;1.90;;;1.70;;
16577;SDS011;8401;52.528;13.340;2022-10-16T04:32:39;1.83;;;1.70;;
16577;SDS011;8401;52.528;13.340;2022-10-16T04:35:05;3.20;;;1.80;;
16577;SDS011;8401;52.528;13.340;2022-10-16T04:37:31;1.50;;;1.40;;
16577;SDS011;8401;52.528;13.340;2022-10-16T04:39:56;2.13;;;1.70;;
16577;SDS011;8401;52.528;13.340;2022-10-16T04:42:22;2.13;;;1.83;;
16577;SDS011;8401;52.528;13.340;2022-10-16T04:44:47;2.57;;;2.00;;
16577;SDS011;8401;52.528;13.340;2022-10-16T04:47:13;2.07;;;1.60;;
16577;SDS011;8401;52.528;13.340;2022-10-16T04:49:38;1.60;;;1.50;;
16577;SDS011;8401;52.528;13.340;2022-10-16T04:52:04;1.80;;;1.70;;
16577;SDS011;8401;52.528;13.340;2022-10-16T04:54:30;1.60;;;1.50;;
16577;SDS011;8401;52.528;13.340;2022-10-16T04:56:56;3.10;;;2.00;;
16577;SDS011;8401;52.528;13.340;2022-10-16T04:59:22;1.80;;;1.70;;
16577;SDS011;8401;52.528;13.340;2022-10-16T05:01:48;2.30;;;1.60;;
16577;SDS011;8401;52.528;13.340;2022-10-16T05:04:14;2.23;;;1.70;;
16577;SDS011;8401;52.528;13.340;2022-10-16T05:06:40;1.80;;;1.70;;
16577;SDS011;8401;52.528;13.340;2022-10-16T05:09:07;1.70;;;1.60;;
16577;SDS011;8401;52.528;13.340;2022-10-16T05:11:33;2.43;;;1.90;;
16577;SDS011;8401;52.528;13.340;2022-10-16T05:13:59;1.70;;;1.60;;
16577;SDS011;8401;52.528;13.340;2022-10-16T05:16:25;3.23;;;1.80;;
16577;SDS011;8401;52.528;13.340;2022-10-16T05:18:51;5.30;;;2.67;;
16577;SDS011;8401;52.528;13.340;2022-10-16T05:21:17;3.30;;;2.77;;
16577;SDS011;8401;52.528;13.340;2022-10-16T05:23:43;2.40;;;2.03;;
16577;SDS011;8401;52.528;13.340;2022-10-16T05:26:08;9.50;;;5.07;;
16577;SDS011;8401;52.528;13.340;2022-10-16T05:28:34;9.87;;;5.47;;
16577;SDS011;8401;52.528;13.340;2022-10-16T05:31:04;3.40;;;2.73;;
16577;SDS011;8401;52.528;13.340;2022-10-16T05:33:31;10.43;;;6.47;;
16577;SDS011;8401;52.528;13.340;2022-10-16T05:36:00;14.23;;;8.07;;
16577;SDS011;8401;52.528;13.340;2022-10-16T05:38:30;12.03;;;7.67;;
16577;SDS011;8401;52.528;13.340;2022-10-16T05:40:55;7.80;;;5.77;;
16577;SDS011;8401;52.528;13.340;2022-10-16T05:43:21;3.77;;;3.03;;
16577;SDS011;8401;52.528;13.340;2022-10-16T05:46:03;4.13;;;2.33;;
16577;SDS011;8401;52.528;13.340;2022-10-16T05:48:30;2.33;;;2.03;;
16577;SDS011;8401;52.528;13.340;2022-10-16T05:50:57;7.67;;;2.90;;
16577;SDS011;8401;52.528;13.340;2022-10-16T05:53:31;2.33;;;2.13;;
16577;SDS011;8401;52.528;13.340;2022-10-16T05:55:58;4.07;;;2.93;;
16577;SDS011;8401;52.528;13.340;2022-10-16T05:58:34;3.17;;;2.50;;
16577;SDS011;8401;52.528;13.340;2022-10-16T06:01:01;3.07;;;2.30;;
16577;SDS011;8401;52.528;13.340;2022-10-16T06:03:38;4.00;;;2.27;;
16577;SDS011;8401;52.528;13.340;2022-10-16T06:06:11;2.43;;;2.23;;
16577;SDS011;8401;52.528;13.340;2022-10-16T06:08:38;6.10;;;2.57;;
16577;SDS011;8401;52.528;13.340;2022-10-16T06:11:06;2.50;;;2.30;;
16577;SDS011;8401;52.528;13.340;2022-10-16T06:13:33;2.43;;;2.20;;
16577;SDS011;8401;52.528;13.340;2022-10-16T06:15:59;4.47;;;2.43;;
16577;SDS011;8401;52.528;13.340;2022-10-16T06:18:26;2.40;;;2.20;;
16577;SDS011;8401;52.528;13.340;2022-10-16T06:20:53;3.50;;;1.80;;
16577;SDS011;8401;52.528;13.340;2022-10-16T06:23:19;3.90;;;2.10;;
16577;SDS011;8401;52.528;13.340;2022-10-16T06:25:44;3.20;;;2.00;;
16577;SDS011;8401;52.528;13.340;2022-10-16T06:28:10;4.73;;;2.10;;
16577;SDS011;8401;52.528;13.340;2022-10-16T06:30:35;2.53;;;1.90;;
16577;SDS011;8401;52.528;13.340;2022-10-16T06:33:01;2.37;;;2.17;;
16577;SDS011;8401;52.528;13.340;2022-10-16T06:35:27;2.83;;;2.00;;
16577;SDS011;8401;52.528;13.340;2022-10-16T06:37:54;3.83;;;2.23;;
16577;SDS011;8401;52.528;13.340;2022-10-16T06:40:19;3.10;;;2.10;;
16577;SDS011;8401;52.528;13.340;2022-10-16T06:42:45;2.13;;;1.90;;
16577;SDS011;8401;52.528;13.340;2022-10-16T06:45:10;3.00;;;2.10;;
16577;SDS011;8401;52.528;13.340;2022-10-16T06:47:37;1.90;;;1.80;;
16577;SDS011;8401;52.528;13.340;2022-10-16T06:50:03;6.03;;;2.43;;
16577;SDS011;8401;52.528;13.340;2022-10-16T06:52:29;2.73;;;1.90;;
16577;SDS011;8401;52.528;13.340;2022-10-16T06:54:54;3.00;;;2.47;;
16577;SDS011;8401;52.528;13.340;2022-10-16T06:57:20;4.40;;;2.23;;
16577;SDS011;8401;52.528;13.340;2022-10-16T06:59:45;17.60;;;5.50;;
16577;SDS011;8401;52.528;13.340;2022-10-16T07:02:11;2.27;;;2.07;;
16577;SDS011;8401;52.528;13.340;2022-10-16T07:04:37;4.60;;;2.30;;
16577;SDS011;8401;52.528;13.340;2022-10-16T07:07:02;2.13;;;2.00;;
16577;SDS011;8401;52.528;13.340;2022-10-16T07:09:28;6.47;;;3.33;;
16577;SDS011;8401;52.528;13.340;2022-10-16T07:11:53;3.43;;;2.30;;
16577;SDS011;8401;52.528;13.340;2022-10-16T07:14:20;3.03;;;1.80;;
16577;SDS011;8401;52.528;13.340;2022-10-16T07:16:46;3.67;;;1.87;;
16577;SDS011;8401;52.528;13.340;2022-10-16T07:19:13;2.60;;;1.70;;
16577;SDS011;8401;52.528;13.340;2022-10-16T07:21:40;2.40;;;1.60;;
16577;SDS011;8401;52.528;13.340;2022-10-16T07:24:07;1.97;;;1.73;;
16577;SDS011;8401;52.528;13.340;2022-10-16T07:26:37;2.00;;;1.80;;
16577;SDS011;8401;52.528;13.340;2022-10-16T07:29:04;3.93;;;2.00;;
16577;SDS011;8401;52.528;13.340;2022-10-16T07:31:38;2.37;;;1.67;;
16577;SDS011;8401;52.528;13.340;2022-10-16T07:34:04;4.00;;;2.03;;
16577;SDS011;8401;52.528;13.340;2022-10-16T07:36:29;2.00;;;1.80;;
16577;SDS011;8401;52.528;13.340;2022-10-16T07:38:55;2.90;;;1.50;;
16577;SDS011;8401;52.528;13.340;2022-10-16T07:41:20;2.07;;;1.80;;
16577;SDS011;8401;52.528;13.340;2022-10-16T07:43:47;2.63;;;1.70;;
16577;SDS011;8401;52.528;13.340;2022-10-16T07:46:14;1.63;;;1.53;;
16577;SDS011;8401;52.528;13.340;2022-10-16T07:48:40;2.63;;;1.87;;
16577;SDS011;8401;52.528;13.340;2022-10-16T07:51:06;2.63;;;1.60;;
16577;SDS011;8401;52.528;13.340;2022-10-16T07:53:32;3.40;;;1.67;;
16577;SDS011;8401;52.528;13.340;2022-10-16T07:55:59;2.03;;;1.30;;
16577;SDS011;8401;52.528;13.340;2022-10-16T07:58:26;4.17;;;2.07;;
16577;SDS011;8401;52.528;13.340;2022-10-16T08:00:52;2.97;;;1.80;;
16577;SDS011;8401;52.528;13.340;2022-10-16T08:03:18;3.63;;;1.80;;
16577;SDS011;8401;52.528;13.340;2022-10-16T08:05:43;3.67;;;1.80;;
16577;SDS011;8401;52.528;13.340;2022-10-16T08:08:12;1.90;;;1.63;;
16577;SDS011;8401;52.528;13.340;2022-10-16T08:10:39;3.27;;;1.60;;
16577;SDS011;8401;52.528;13.340;2022-10-16T08:13:04;1.67;;;1.40;;
16577;SDS011;8401;52.528;13.340;2022-10-16T08:15:30;2.53;;;1.70;;
16577;SDS011;8401;52.528;13.340;2022-10-16T08:17:56;2.50;;;1.37;;
16577;SDS011;8401;52.528;13.340;2022-10-16T08:20:23;2.10;;;1.67;;
16577;SDS011;8401;52.528;13.340;2022-10-16T08:22:50;1.93;;;1.57;;
16577;SDS011;8401;52.528;13.340;2022-10-16T08:25:15;3.70;;;1.40;;
16577;SDS011;8401;52.528;13.340;2022-10-16T08:27:41;2.23;;;1.80;;
16577;SDS011;8401;52.528;13.340;2022-10-16T08:30:07;2.17;;;1.40;;
16577;SDS011;8401;52.528;13.340;2022-10-16T08:32:33;3.27;;;1.70;;
16577;SDS011;8401;52.528;13.340;2022-10-16T08:34:58;2.42;;;1.65;;
16577;SDS011;8401;52.528;13.340;2022-10-16T08:37:24;1.73;;;1.23;;
16577;SDS011;8401;52.528;13.340;2022-10-16T08:39:50;2.40;;;1.30;;
16577;SDS011;8401;52.528;13.340;2022-10-16T08:42:21;2.85;;;1.50;;
16577;SDS011;8401;52.528;13.340;2022-10-16T08:45:26;2.03;;;1.40;;
16577;SDS011;8401;52.528;13.340;2022-10-16T08:50:46;2.55;;;1.48;;
16577;SDS011;8401;52.528;13.340;2022-10-16T08:53:15;2.22;;;1.50;;
16577;SDS011;8401;52.528;13.340;2022-10-16T08:55:52;1.50;;;1.38;;
16577;SDS011;8401;52.528;13.340;2022-10-16T08:58:19;3.92;;;1.67;;
16577;SDS011;8401;52.528;13.340;2022-10-16T09:00:54;2.17;;;1.35;;
16577;SDS011;8401;52.528;13.340;2022-10-16T09:20:31;1.98;;;1.60;;
16577;SDS011;8401;52.528;13.340;2022-10-16T09:25:54;2.13;;;1.17;;
16577;SDS011;8401;52.528;13.340;2022-10-16T09:28:22;1.33;;;1.20;;
16577;SDS011;8401;52.528;13.340;2022-10-16T09:30:47;3.63;;;1.30;;
16577;SDS011;8401;52.528;13.340;2022-10-16T09:33:14;1.60;;;1.30;;
16577;SDS011;8401;52.528;13.340;2022-10-16T09:35:46;2.55;;;2.15;;
16577;SDS011;8401;52.528;13.340;2022-10-16T09:39:01;2.63;;;1.17;;
16577;SDS011;8401;52.528;13.340;2022-10-16T09:41:17;3.15;;;1.30;;
16577;SDS011;8401;52.528;13.340;2022-10-16T09:43:48;1.98;;;1.20;;
16577;SDS011;8401;52.528;13.340;2022-10-16T09:46:27;3.10;;;1.15;;
16577;SDS011;8401;52.528;13.340;2022-10-16T09:48:59;2.60;;;1.33;;
16577;SDS011;8401;52.528;13.340;2022-10-16T09:51:45;1.70;;;1.00;;
16577;SDS011;8401;52.528;13.340;2022-10-16T09:54:14;1.52;;;1.23;;
16577;SDS011;8401;52.528;13.340;2022-10-16T09:56:41;1.20;;;1.10;;
16577;SDS011;8401;52.528;13.340;2022-10-16T09:59:16;3.63;;;1.42;;
16577;SDS011;8401;52.528;13.340;2022-10-16T10:01:47;1.00;;;0.90;;
16577;SDS011;8401;52.528;13.340;2022-10-16T10:04:18;4.18;;;1.00;;
16577;SDS011;8401;52.528;13.340;2022-10-16T10:06:45;1.10;;;0.80;;
16577;SDS011;8401;52.528;13.340;2022-10-16T10:09:26;1.10;;;1.00;;
16577;SDS011;8401;52.528;13.340;2022-10-16T10:11:59;1.38;;;1.00;;
16577;SDS011;8401;52.528;13.340;2022-10-16T10:14:34;1.60;;;0.90;;
16577;SDS011;8401;52.528;13.340;2022-10-16T10:19:37;3.50;;;1.10;;
16577;SDS011;8401;52.528;13.340;2022-10-16T10:22:15;0.90;;;0.90;;
16577;SDS011;8401;52.528;13.340;2022-10-16T10:24:43;1.55;;;1.00;;
16577;SDS011;8401;52.528;13.340;2022-10-16T10:27:48;1.98;;;1.48;;
16577;SDS011;8401;52.528;13.340;2022-10-16T10:30:42;3.70;;;1.65;;
16577;SDS011;8401;52.528;13.340;2022-10-16T10:38:59;0.93;;;0.90;;
16577;SDS011;8401;52.528;13.340;2022-10-16T10:41:38;2.85;;;1.25;;
16577;SDS011;8401;52.528;13.340;2022-10-16T10:44:37;2.88;;;1.40;;
16577;SDS011;8401;52.528;13.340;2022-10-16T10:47:15;2.28;;;1.20;;
16577;SDS011;8401;52.528;13.340;2022-10-16T10:49:47;2.45;;;1.13;;
16577;SDS011;8401;52.528;13.340;2022-10-16T10:52:42;2.22;;;1.13;;
16577;SDS011;8401;52.528;13.340;2022-10-16T10:55:39;1.88;;;0.80;;
16577;SDS011;8401;52.528;13.340;2022-10-16T10:58:15;1.08;;;0.80;;
16577;SDS011;8401;52.528;13.340;2022-10-16T11:01:12;3.53;;;1.08;;
16577;SDS011;8401;52.528;13.340;2022-10-16T11:06:24;1.30;;;0.80;;
16577;SDS011;8401;52.528;13.340;2022-10-16T11:14:19;2.80;;;1.45;;
16577;SDS011;8401;52.528;13.340;2022-10-16T11:17:25;1.20;;;1.05;;
16577;SDS011;8401;52.528;13.340;2022-10-16T11:20:16;1.00;;;0.88;;
16577;SDS011;8401;52.528;13.340;2022-10-16T11:22:53;1.60;;;0.95;;
16577;SDS011;8401;52.528;13.340;2022-10-16T11:25:31;1.73;;;1.15;;
16577;SDS011;8401;52.528;13.340;2022-10-16T11:30:47;1.23;;;1.13;;
16577;SDS011;8401;52.528;13.340;2022-10-16T11:33:24;2.28;;;1.50;;
16577;SDS011;8401;52.528;13.340;2022-10-16T11:36:08;1.60;;;1.40;;
16577;SDS011;8401;52.528;13.340;2022-10-16T11:38:39;3.10;;;1.20;;
16577;SDS011;8401;52.528;13.340;2022-10-16T11:41:29;2.05;;;1.50;;
16577;SDS011;8401;52.528;13.340;2022-10-16T11:44:13;2.03;;;0.98;;
16577;SDS011;8401;52.528;13.340;2022-10-16T11:46:57;1.65;;;1.27;;
16577;SDS011;8401;52.528;13.340;2022-10-16T11:50:33;0.82;;;0.80;;
16577;SDS011;8401;52.528;13.340;2022-10-16T11:55:52;3.03;;;1.35;;
16577;SDS011;8401;52.528;13.340;2022-10-16T11:58:26;2.00;;;1.00;;
16577;SDS011;8401;52.528;13.340;2022-10-16T12:03:40;3.20;;;0.93;;
16577;SDS011;8401;52.528;13.340;2022-10-16T12:08:44;1.98;;;1.02;;
16577;SDS011;8401;52.528;13.340;2022-10-16T12:11:22;2.97;;;1.20;;
16577;SDS011;8401;52.528;13.340;2022-10-16T12:13:51;1.15;;;1.05;;
16577;SDS011;8401;52.528;13.340;2022-10-16T12:18:46;1.92;;;1.00;;
16577;SDS011;8401;52.528;13.340;2022-10-16T12:21:13;1.25;;;0.60;;
16577;SDS011;8401;52.528;13.340;2022-10-16T12:24:02;1.02;;;0.90;;
16577;SDS011;8401;52.528;13.340;2022-10-16T12:26:30;2.17;;;0.90;;
16577;SDS011;8401;52.528;13.340;2022-10-16T12:29:11;1.30;;;0.98;;
16577;SDS011;8401;52.528;13.340;2022-10-16T12:31:58;2.65;;;1.83;;
16577;SDS011;8401;52.528;13.340;2022-10-16T12:34:28;3.60;;;1.17;;
16577;SDS011;8401;52.528;13.340;2022-10-16T12:37:07;4.65;;;1.52;;
16577;SDS011;8401;52.528;13.340;2022-10-16T12:39:45;3.67;;;1.63;;
16577;SDS011;8401;52.528;13.340;2022-10-16T12:44:56;2.92;;;0.98;;
16577;SDS011;8401;52.528;13.340;2022-10-16T12:47:23;4.78;;;1.30;;
16577;SDS011;8401;52.528;13.340;2022-10-16T12:49:53;3.38;;;1.58;;
16577;SDS011;8401;52.528;13.340;2022-10-16T12:52:23;1.45;;;1.10;;
16577;SDS011;8401;52.528;13.340;2022-10-16T12:55:00;1.73;;;0.75;;
16577;SDS011;8401;52.528;13.340;2022-10-16T12:57:41;1.85;;;0.90;;
16577;SDS011;8401;52.528;13.340;2022-10-16T13:00:31;1.15;;;0.85;;
16577;SDS011;8401;52.528;13.340;2022-10-16T13:03:11;2.45;;;0.82;;
16577;SDS011;8401;52.528;13.340;2022-10-16T13:05:56;4.53;;;0.80;;
16577;SDS011;8401;52.528;13.340;2022-10-16T13:08:53;1.35;;;0.80;;
16577;SDS011;8401;52.528;13.340;2022-10-16T13:14:28;2.00;;;0.70;;
16577;SDS011;8401;52.528;13.340;2022-10-16T13:17:16;1.45;;;0.73;;
16577;SDS011;8401;52.528;13.340;2022-10-16T13:28:05;1.13;;;0.85;;
16577;SDS011;8401;52.528;13.340;2022-10-16T13:30:35;1.05;;;0.70;;
16577;SDS011;8401;52.528;13.340;2022-10-16T13:33:16;1.15;;;0.50;;
16577;SDS011;8401;52.528;13.340;2022-10-16T13:35:53;0.88;;;0.70;;
16577;SDS011;8401;52.528;13.340;2022-10-16T13:38:21;1.92;;;0.65;;
16577;SDS011;8401;52.528;13.340;2022-10-16T13:43:34;1.25;;;0.75;;
16577;SDS011;8401;52.528;13.340;2022-10-16T13:46:12;1.38;;;0.88;;
16577;SDS011;8401;52.528;13.340;2022-10-16T13:48:43;1.58;;;0.50;;
16577;SDS011;8401;52.528;13.340;2022-10-16T13:53:42;2.05;;;0.80;;
16577;SDS011;8401;52.528;13.340;2022-10-16T13:56:12;0.75;;;0.50;;
16577;SDS011;8401;52.528;13.340;2022-10-16T13:58:40;1.08;;;0.73;;
16577;SDS011;8401;52.528;13.340;2022-10-16T14:01:16;1.85;;;0.68;;
16577;SDS011;8401;52.528;13.340;2022-10-16T14:03:48;0.55;;;0.55;;
16577;SDS011;8401;52.528;13.340;2022-10-16T14:06:16;0.65;;;0.50;;
16577;SDS011;8401;52.528;13.340;2022-10-16T14:08:48;4.40;;;1.45;;
16577;SDS011;8401;52.528;13.340;2022-10-16T14:11:20;1.90;;;1.20;;
16577;SDS011;8401;52.528;13.340;2022-10-16T14:13:48;2.13;;;1.40;;
16577;SDS011;8401;52.528;13.340;2022-10-16T14:16:22;2.03;;;0.90;;
16577;SDS011;8401;52.528;13.340;2022-10-16T14:18:59;1.10;;;0.75;;
16577;SDS011;8401;52.528;13.340;2022-10-16T14:21:28;2.03;;;0.55;;
16577;SDS011;8401;52.528;13.340;2022-10-16T14:23:55;1.95;;;0.80;;
16577;SDS011;8401;52.528;13.340;2022-10-16T14:26:22;1.23;;;0.90;;
16577;SDS011;8401;52.528;13.340;2022-10-16T14:29:01;0.85;;;0.80;;
16577;SDS011;8401;52.528;13.340;2022-10-16T14:31:42;0.65;;;0.65;;
16577;SDS011;8401;52.528;13.340;2022-10-16T14:34:27;2.60;;;0.80;;
16577;SDS011;8401;52.528;13.340;2022-10-16T14:39:59;0.70;;;0.70;;
16577;SDS011;8401;52.528;13.340;2022-10-16T14:42:27;1.95;;;0.80;;
16577;SDS011;8401;52.528;13.340;2022-10-16T14:44:53;0.80;;;0.80;;
16577;SDS011;8401;52.528;13.340;2022-10-16T14:47:21;2.58;;;0.70;;
16577;SDS011;8401;52.528;13.340;2022-10-16T14:49:51;3.97;;;0.93;;
16577;SDS011;8401;52.528;13.340;2022-10-16T14:52:20;1.98;;;1.08;;
16577;SDS011;8401;52.528;13.340;2022-10-16T14:54:48;2.28;;;1.13;;
16577;SDS011;8401;52.528;13.340;2022-10-16T14:57:18;1.75;;;1.00;;
16577;SDS011;8401;52.528;13.340;2022-10-16T14:59:47;1.50;;;1.30;;
16577;SDS011;8401;52.528;13.340;2022-10-16T15:04:55;1.83;;;0.80;;
16577;SDS011;8401;52.528;13.340;2022-10-16T15:07:21;1.77;;;1.20;;
16577;SDS011;8401;52.528;13.340;2022-10-16T15:09:46;1.48;;;1.00;;
16577;SDS011;8401;52.528;13.340;2022-10-16T15:12:12;1.55;;;0.95;;
16577;SDS011;8401;52.528;13.340;2022-10-16T15:14:38;1.42;;;1.00;;
16577;SDS011;8401;52.528;13.340;2022-10-16T15:17:03;1.50;;;1.27;;
16577;SDS011;8401;52.528;13.340;2022-10-16T15:19:29;1.20;;;1.10;;
16577;SDS011;8401;52.528;13.340;2022-10-16T15:21:55;1.00;;;0.90;;
16577;SDS011;8401;52.528;13.340;2022-10-16T15:24:21;2.00;;;1.02;;
16577;SDS011;8401;52.528;13.340;2022-10-16T15:26:47;2.17;;;1.23;;
16577;SDS011;8401;52.528;13.340;2022-10-16T15:29:13;1.08;;;0.98;;
16577;SDS011;8401;52.528;13.340;2022-10-16T15:31:40;1.98;;;1.08;;
16577;SDS011;8401;52.528;13.340;2022-10-16T15:34:08;2.15;;;1.75;;
16577;SDS011;8401;52.528;13.340;2022-10-16T15:36:35;2.40;;;1.65;;
16577;SDS011;8401;52.528;13.340;2022-10-16T15:39:05;1.60;;;1.00;;
16577;SDS011;8401;52.528;13.340;2022-10-16T15:41:43;1.50;;;1.00;;
16577;SDS011;8401;52.528;13.340;2022-10-16T15:44:15;2.95;;;2.20;;
16577;SDS011;8401;52.528;13.340;2022-10-16T15:46:41;4.07;;;2.53;;
16577;SDS011;8401;52.528;13.340;2022-10-16T15:49:07;3.40;;;1.88;;
16577;SDS011;8401;52.528;13.340;2022-10-16T15:51:35;5.38;;;2.20;;
16577;SDS011;8401;52.528;13.340;2022-10-16T15:54:03;4.28;;;2.55;;
16577;SDS011;8401;52.528;13.340;2022-10-16T15:56:29;3.75;;;1.67;;
16577;SDS011;8401;52.528;13.340;2022-10-16T15:58:58;3.88;;;2.25;;
16577;SDS011;8401;52.528;13.340;2022-10-16T16:01:25;3.42;;;1.70;;
16577;SDS011;8401;52.528;13.340;2022-10-16T16:03:54;4.15;;;2.50;;
16577;SDS011;8401;52.528;13.340;2022-10-16T16:06:20;4.63;;;2.63;;
16577;SDS011;8401;52.528;13.340;2022-10-16T16:08:48;6.25;;;2.75;;
16577;SDS011;8401;52.528;13.340;2022-10-16T16:11:15;6.18;;;2.83;;
16577;SDS011;8401;52.528;13.340;2022-10-16T16:13:42;3.47;;;2.25;;
16577;SDS011;8401;52.528;13.340;2022-10-16T16:16:09;3.25;;;2.55;;
16577;SDS011;8401;52.528;13.340;2022-10-16T16:18:38;8.02;;;2.45;;
16577;SDS011;8401;52.528;13.340;2022-10-16T16:21:04;6.95;;;3.25;;
16577;SDS011;8401;52.528;13.340;2022-10-16T16:23:31;7.07;;;3.45;;
16577;SDS011;8401;52.528;13.340;2022-10-16T16:28:40;2.08;;;1.60;;